Time;durP1;ratioP1;P1;durP2;ratioP2;P2;SDS_P1;SDS_P2;PMS_P1;PMS_P2;Temp;Humidity;BMP_temperature;BMP_pressure;BME280_temperature;BME280_humidity;BME280_pressure;Samples;Min_cycle;Max_cycle;Signal;HPM_P1;HPM_P2
2023/05/22 00:01:20;;;;;;;6.20;3.37;;;14.20;62.80;;;;;;5086106;28;20193;-73
2023/05/22 00:03:49;;;;;;;14.87;4.13;;;14.20;62.20;;;;;;5089321;28;20181;-76
2023/05/22 00:06:17;;;;;;;6.83;3.57;;;14.20;62.70;;;;;;5085768;28;20179;-71
2023/05/22 00:08:44;;;;;;;10.80;4.33;;;13.90;62.60;;;;;;5085709;28;20241;-72
2023/05/22 00:11:12;;;;;;;10.20;3.53;;;13.90;64.00;;;;;;5087749;28;20580;-74
2023/05/22 00:13:39;;;;;;;9.07;3.60;;;14.10;63.50;;;;;;5084619;28;20202;-76
2023/05/22 00:16:07;;;;;;;12.23;3.87;;;14.00;63.00;;;;;;5085595;28;20225;-72
2023/05/22 00:18:34;;;;;;;9.70;3.73;;;14.00;62.30;;;;;;5086791;28;20194;-75
2023/05/22 00:21:01;;;;;;;13.70;3.77;;;14.20;62.50;;;;;;5090508;28;20644;-74
2023/05/22 00:23:29;;;;;;;9.60;3.73;;;14.30;61.60;;;;;;5083669;28;20225;-73
2023/05/22 00:25:56;;;;;;;10.43;3.70;;;14.30;61.20;;;;;;5086260;28;20189;-76
2023/05/22 00:28:23;;;;;;;7.93;3.53;;;14.30;62.00;;;;;;5081999;28;20179;-77
2023/05/22 00:30:51;;;;;;;7.17;3.20;;;14.40;61.20;;;;;;5086558;28;20218;-76
2023/05/22 00:33:18;;;;;;;10.57;3.70;;;14.60;60.40;;;;;;5084655;28;20182;-79
2023/05/22 00:35:45;;;;;;;5.23;3.10;;;14.70;59.90;;;;;;5089084;28;20191;-70
2023/05/22 00:38:31;;;;;;;7.03;3.47;;;14.80;60.10;;;;;;5087073;28;20294;-78
2023/05/22 00:41:02;;;;;;;9.00;2.97;;;14.70;59.30;;;;;;5088037;28;20260;-72
2023/05/22 00:43:30;;;;;;;11.53;3.47;;;14.80;59.00;;;;;;5088472;28;20187;-75
2023/05/22 00:45:58;;;;;;;8.07;3.00;;;14.90;59.40;;;;;;5088164;28;20174;-77
2023/05/22 00:48:25;;;;;;;5.73;2.80;;;15.00;58.60;;;;;;5085154;28;20183;-79
2023/05/22 00:50:54;;;;;;;7.87;2.77;;;15.10;58.10;;;;;;5091579;28;20202;-74
2023/05/22 00:53:24;;;;;;;9.40;3.37;;;15.20;58.80;;;;;;5093604;28;20179;-76
2023/05/22 00:55:54;;;;;;;5.60;3.00;;;15.30;58.00;;;;;;5088880;28;20183;-76
2023/05/22 00:58:23;;;;;;;4.30;2.57;;;15.30;56.80;;;;;;5091304;28;20178;-76
2023/05/22 01:00:51;;;;;;;7.27;2.57;;;15.40;56.40;;;;;;5091495;28;20294;-77
2023/05/22 01:03:24;;;;;;;9.17;2.80;;;15.50;55.30;;;;;;5091406;28;20641;-76
2023/05/22 01:05:52;;;;;;;5.73;2.50;;;15.50;55.50;;;;;;5092253;28;20182;-74
2023/05/22 01:08:20;;;;;;;6.17;2.60;;;15.60;55.20;;;;;;5090048;28;20252;-67
2023/05/22 01:10:53;;;;;;;10.50;2.80;;;15.70;55.00;;;;;;5092671;28;20621;-77
2023/05/22 01:13:41;;;;;;;9.27;2.70;;;15.80;54.10;;;;;;5088911;28;20202;-76
2023/05/22 01:16:12;;;;;;;5.57;2.40;;;16.00;53.80;;;;;;5089502;28;20342;-72
2023/05/22 01:19:03;;;;;;;8.50;2.53;;;16.10;53.10;;;;;;5088696;28;20185;-75
2023/05/22 01:21:44;;;;;;;10.13;3.60;;;16.20;52.30;;;;;;5087977;28;20193;-76
2023/05/22 01:24:36;;;;;;;5.43;2.33;;;16.30;51.80;;;;;;5092283;28;20184;-73
2023/05/22 01:27:33;;;;;;;5.17;2.07;;;16.30;51.20;;;;;;5089146;28;20265;-75
2023/05/22 01:30:12;;;;;;;4.13;2.23;;;16.40;50.60;;;;;;5091509;28;20564;-81
2023/05/22 01:32:41;;;;;;;7.63;2.50;;;16.50;51.20;;;;;;5089200;28;20269;-80
2023/05/22 01:35:11;;;;;;;4.43;2.27;;;16.80;50.00;;;;;;5086692;28;20686;-72
2023/05/22 01:37:39;;;;;;;6.97;2.50;;;17.10;49.80;;;;;;5092998;28;20292;-77
2023/05/22 01:40:07;;;;;;;6.13;1.60;;;17.10;48.00;;;;;;5095603;28;20189;-72
2023/05/22 01:42:35;;;;;;;10.17;2.37;;;17.20;48.60;;;;;;5087977;28;20185;-77
2023/05/22 01:45:02;;;;;;;8.13;2.50;;;17.30;49.40;;;;;;5093725;28;20603;-71
2023/05/22 01:47:32;;;;;;;11.23;2.53;;;17.40;48.40;;;;;;5087329;28;20186;-71
2023/05/22 01:50:00;;;;;;;9.93;2.40;;;17.30;47.80;;;;;;5088581;28;20527;-74
2023/05/22 01:52:40;;;;;;;3.53;1.73;;;17.20;48.60;;;;;;5090938;28;20190;-78
2023/05/22 01:55:16;;;;;;;5.87;1.97;;;17.30;47.80;;;;;;5091756;28;20208;-74
2023/05/22 01:58:11;;;;;;;5.63;2.23;;;17.40;47.10;;;;;;5090989;28;20570;-72
2023/05/22 02:00:42;;;;;;;4.57;1.97;;;17.40;45.00;;;;;;5061830;28;20767;-74
2023/05/22 02:03:16;;;;;;;10.23;1.97;;;17.40;45.40;;;;;;5089622;28;20197;-77
2023/05/22 02:05:49;;;;;;;4.47;2.07;;;17.30;46.60;;;;;;5089662;28;20197;-76
2023/05/22 02:08:18;;;;;;;5.80;1.90;;;17.70;45.90;;;;;;5091582;28;20190;-80
2023/05/22 02:10:48;;;;;;;3.50;1.60;;;18.00;45.80;;;;;;5086882;28;20229;-74
2023/05/22 02:13:15;;;;;;;4.33;1.53;;;18.50;44.70;;;;;;5089883;28;20269;-74
2023/05/22 02:15:45;;;;;;;6.00;2.03;;;18.40;43.90;;;;;;5089460;28;20182;-81
2023/05/22 02:18:13;;;;;;;8.30;1.73;;;18.30;44.10;;;;;;5086090;28;20269;-78
2023/05/22 02:20:41;;;;;;;6.87;1.90;;;18.30;43.50;;;;;;5091236;28;20191;-80
2023/05/22 02:23:08;;;;;;;4.00;1.53;;;18.70;43.80;;;;;;5085238;28;20640;-77
2023/05/22 02:25:36;;;;;;;4.93;1.33;;;18.70;41.60;;;;;;5089939;28;20269;-79
2023/05/22 02:28:03;;;;;;;5.50;1.63;;;19.00;40.60;;;;;;5088871;28;20194;-76
2023/05/22 02:30:30;;;;;;;3.80;1.60;;;19.60;39.10;;;;;;5091330;28;20709;-75
2023/05/22 02:32:59;;;;;;;6.17;1.30;;;19.90;38.70;;;;;;5089317;28;20194;-76
2023/05/22 02:35:26;;;;;;;4.30;1.50;;;19.50;39.70;;;;;;5088137;28;20183;-71
2023/05/22 02:37:53;;;;;;;4.00;1.77;;;19.70;39.50;;;;;;5089438;28;20546;-79
2023/05/22 02:40:20;;;;;;;4.43;1.50;;;19.30;40.00;;;;;;5090616;28;20657;-77
2023/05/22 02:42:48;;;;;;;5.43;1.73;;;19.40;39.80;;;;;;5094501;28;20183;-75
2023/05/22 02:45:17;;;;;;;3.53;1.77;;;19.80;38.60;;;;;;5091652;28;20197;-76
2023/05/22 02:47:44;;;;;;;2.97;1.57;;;19.50;38.80;;;;;;5089666;28;20198;-75
2023/05/22 02:50:12;;;;;;;2.60;1.40;;;19.60;39.30;;;;;;5086131;28;20673;-80
2023/05/22 02:52:39;;;;;;;8.40;1.57;;;19.70;38.70;;;;;;5090705;28;20195;-77
2023/05/22 02:55:07;;;;;;;4.87;1.90;;;19.80;38.00;;;;;;5090150;28;20190;-75
2023/05/22 02:57:34;;;;;;;6.80;1.77;;;19.90;37.60;;;;;;5090829;28;20700;-80
2023/05/22 03:00:02;;;;;;;8.70;1.70;;;20.20;37.20;;;;;;5083982;28;20184;-79
2023/05/22 03:02:31;;;;;;;2.87;1.37;;;20.00;37.50;;;;;;5087573;28;20190;-79
2023/05/22 03:04:58;;;;;;;5.47;1.47;;;19.70;36.20;;;;;;5085851;28;20183;-79
2023/05/22 03:07:28;;;;;;;6.07;3.87;;;20.10;35.30;;;;;;5089011;28;20194;-76
2023/05/22 03:09:55;;;;;;;6.80;4.43;;;20.40;35.50;;;;;;5085482;28;20251;-77
2023/05/22 03:12:23;;;;;;;6.90;1.90;;;19.90;36.50;;;;;;5091123;28;20314;-80
2023/05/22 03:14:50;;;;;;;2.73;1.40;;;20.30;35.30;;;;;;5092297;28;20182;-77
2023/05/22 03:17:17;;;;;;;5.03;1.63;;;20.40;33.20;;;;;;5083368;28;20197;-78
2023/05/22 03:19:45;;;;;;;3.97;1.27;;;20.50;34.40;;;;;;5090926;28;20664;-77
2023/05/22 03:22:12;;;;;;;9.80;3.27;;;20.30;34.60;;;;;;5090756;28;20519;-79
2023/05/22 03:24:39;;;;;;;2.70;1.40;;;20.60;34.20;;;;;;5091918;28;20171;-79
2023/05/22 03:27:06;;;;;;;4.27;1.47;;;20.50;34.00;;;;;;5093555;28;20269;-80
2023/05/22 03:29:35;;;;;;;2.53;1.30;;;21.10;33.20;;;;;;5086866;28;20187;-77
2023/05/22 03:32:02;;;;;;;5.70;2.77;;;21.20;31.90;;;;;;5089065;28;20263;-78
2023/05/22 03:34:31;;;;;;;2.27;1.13;;;21.30;32.60;;;;;;5086851;28;20214;-75
2023/05/22 03:36:58;;;;;;;3.97;1.10;;;21.30;31.20;;;;;;5088794;28;20183;-78
2023/05/22 03:39:25;;;;;;;3.30;1.10;;;21.10;32.00;;;;;;5090505;28;20187;-68
2023/05/22 03:41:53;;;;;;;3.87;1.37;;;21.10;32.60;;;;;;5088920;28;20210;-78
2023/05/22 03:44:20;;;;;;;3.40;1.43;;;21.80;30.80;;;;;;5085528;28;20210;-70
2023/05/22 03:46:47;;;;;;;4.87;1.33;;;21.60;30.80;;;;;;5088185;28;20212;-79
2023/05/22 03:49:14;;;;;;;4.03;1.03;;;21.90;30.30;;;;;;5088594;28;20238;-75
2023/05/22 03:51:42;;;;;;;3.43;1.30;;;21.80;31.30;;;;;;5088465;28;20800;-76
2023/05/22 03:54:09;;;;;;;1.70;1.03;;;22.00;30.50;;;;;;5086100;28;20186;-73
2023/05/22 03:56:36;;;;;;;2.93;1.30;;;22.10;30.50;;;;;;5089156;28;20648;-75
2023/05/22 03:59:04;;;;;;;3.00;1.13;;;21.60;31.20;;;;;;5085948;28;20301;-71
2023/05/22 04:01:31;;;;;;;4.60;1.30;;;22.20;31.00;;;;;;5087249;28;20641;-69
2023/05/22 04:03:58;;;;;;;2.90;1.40;;;22.60;30.30;;;;;;5090135;28;20231;-71
2023/05/22 04:06:26;;;;;;;2.90;1.20;;;22.30;30.40;;;;;;5083355;28;20710;-71
2023/05/22 04:08:53;;;;;;;3.17;1.27;;;22.30;31.10;;;;;;5086216;28;20178;-73
2023/05/22 04:11:21;;;;;;;3.33;1.00;;;22.70;30.10;;;;;;5088757;28;20789;-76
2023/05/22 04:13:49;;;;;;;1.47;1.33;;;23.80;27.90;;;;;;5087834;28;20178;-78
2023/05/22 04:16:17;;;;;;;2.90;1.10;;;23.50;28.70;;;;;;5087770;28;20197;-78
2023/05/22 04:18:44;;;;;;;2.70;1.43;;;23.50;28.00;;;;;;5084535;28;20182;-70
2023/05/22 04:21:12;;;;;;;4.07;1.27;;;23.30;28.60;;;;;;5088002;28;20195;-74
2023/05/22 04:23:42;;;;;;;2.43;1.23;;;23.20;29.60;;;;;;5089920;28;20193;-74
2023/05/22 04:26:09;;;;;;;5.73;1.50;;;23.40;29.10;;;;;;5084808;28;20569;-70
2023/05/22 04:28:36;;;;;;;2.27;1.10;;;23.40;29.80;;;;;;5086859;28;20178;-76
2023/05/22 04:31:05;;;;;;;3.10;1.10;;;23.90;27.80;;;;;;5087043;28;20308;-77
2023/05/22 04:33:33;;;;;;;3.87;1.20;;;24.20;27.50;;;;;;5082642;28;20189;-76
2023/05/22 04:36:01;;;;;;;3.77;0.90;;;24.70;27.00;;;;;;5086500;28;20575;-77
2023/05/22 04:38:29;;;;;;;5.47;1.50;;;24.80;26.60;;;;;;5085024;28;20709;-75
2023/05/22 04:40:57;;;;;;;5.67;1.50;;;24.10;27.40;;;;;;5085373;28;20277;-74
2023/05/22 04:43:25;;;;;;;2.10;1.17;;;24.00;27.50;;;;;;5089501;28;20374;-74
2023/05/22 04:45:53;;;;;;;3.10;1.50;;;24.10;28.10;;;;;;5087512;28;20273;-70
2023/05/22 04:48:21;;;;;;;4.70;1.47;;;24.10;28.20;;;;;;5085896;28;20186;-75
2023/05/22 04:50:49;;;;;;;3.30;1.10;;;24.40;28.00;;;;;;5087902;28;20851;-69
2023/05/22 04:53:17;;;;;;;3.00;1.20;;;24.80;27.90;;;;;;5087843;28;20182;-76
2023/05/22 04:55:44;;;;;;;1.90;1.10;;;25.10;26.70;;;;;;5088628;28;20196;-75
2023/05/22 04:58:12;;;;;;;3.40;1.30;;;25.00;26.90;;;;;;5085400;28;20665;-75
2023/05/22 05:00:39;;;;;;;3.77;1.10;;;25.80;26.60;;;;;;5089248;28;20186;-69
2023/05/22 05:03:07;;;;;;;3.77;1.20;;;25.30;26.80;;;;;;5084563;28;20179;-75
2023/05/22 05:05:34;;;;;;;4.90;1.33;;;25.40;26.50;;;;;;5088373;28;20198;-71
2023/05/22 05:08:02;;;;;;;2.33;1.00;;;25.00;27.40;;;;;;5090385;28;20232;-75
2023/05/22 05:10:29;;;;;;;4.93;1.40;;;24.70;26.90;;;;;;5085613;28;20296;-75
2023/05/22 05:12:56;;;;;;;3.97;1.00;;;24.30;27.20;;;;;;5089801;28;20182;-75
2023/05/22 05:15:24;;;;;;;3.83;1.30;;;24.20;27.20;;;;;;5085848;28;20183;-77
2023/05/22 05:17:51;;;;;;;3.63;1.20;;;24.30;27.90;;;;;;5088708;28;20186;-74
2023/05/22 05:20:19;;;;;;;5.93;1.20;;;24.50;27.50;;;;;;5090156;28;20187;-71
2023/05/22 05:22:46;;;;;;;3.93;1.10;;;24.80;26.90;;;;;;5081581;28;20274;-75
2023/05/22 05:25:13;;;;;;;4.40;1.53;;;24.30;27.20;;;;;;5087381;28;20182;-72
2023/05/22 05:27:41;;;;;;;4.53;1.10;;;24.20;27.70;;;;;;5083095;28;20183;-77
2023/05/22 05:30:09;;;;;;;6.00;1.40;;;24.30;27.90;;;;;;5086357;28;20196;-73
2023/05/22 05:32:37;;;;;;;5.73;1.40;;;24.10;27.60;;;;;;5089235;28;20213;-75
2023/05/22 05:35:04;;;;;;;2.43;1.20;;;24.00;27.80;;;;;;5091590;28;20181;-71
2023/05/22 05:37:32;;;;;;;6.30;1.30;;;24.60;27.80;;;;;;5091611;28;20208;-74
2023/05/22 05:39:59;;;;;;;3.37;1.27;;;23.80;27.90;;;;;;5093730;28;20681;-77
2023/05/22 05:42:26;;;;;;;5.27;1.23;;;23.80;28.30;;;;;;5091158;28;20186;-70
2023/05/22 05:44:54;;;;;;;5.80;1.40;;;24.10;28.60;;;;;;5093883;28;20182;-76
2023/05/22 05:47:22;;;;;;;2.13;1.00;;;23.80;28.50;;;;;;5085142;28;20705;-76
2023/05/22 05:49:50;;;;;;;5.10;1.53;;;23.90;27.90;;;;;;5089677;28;20190;-71
2023/05/22 05:52:17;;;;;;;7.03;1.60;;;24.50;27.80;;;;;;5088331;28;20577;-76
2023/05/22 05:54:46;;;;;;;4.50;1.47;;;24.90;27.90;;;;;;5091906;28;20183;-74
2023/05/22 05:57:14;;;;;;;9.30;1.83;;;25.40;27.00;;;;;;5088017;28;20551;-76
2023/05/22 05:59:41;;;;;;;4.37;1.30;;;24.90;27.10;;;;;;5086014;28;20183;-77
2023/05/22 06:02:09;;;;;;;4.00;1.40;;;24.60;28.20;;;;;;5092804;28;20205;-75
2023/05/22 06:04:37;;;;;;;6.00;1.60;;;24.80;27.90;;;;;;5090423;28;20654;-74
2023/05/22 06:07:05;;;;;;;7.90;1.60;;;24.40;28.30;;;;;;5089797;28;20174;-76
2023/05/22 06:09:32;;;;;;;2.83;1.40;;;23.30;29.70;;;;;;5091680;28;20276;-72
2023/05/22 06:12:00;;;;;;;5.37;1.40;;;22.30;32.00;;;;;;5089431;28;20577;-75
2023/05/22 06:14:27;;;;;;;6.07;2.07;;;21.40;34.30;;;;;;5089563;28;20208;-76
2023/05/22 06:16:54;;;;;;;7.43;2.23;;;21.10;36.90;;;;;;5091871;28;20280;-74
2023/05/22 06:19:22;;;;;;;5.23;2.03;;;20.60;38.70;;;;;;5083015;28;20528;-75
2023/05/22 06:21:49;;;;;;;5.43;1.90;;;20.00;40.30;;;;;;5090905;28;20195;-77
2023/05/22 06:24:17;;;;;;;10.87;2.30;;;19.70;41.70;;;;;;5088491;28;20267;-76
2023/05/22 06:26:44;;;;;;;7.37;2.37;;;19.50;42.80;;;;;;5088079;28;20202;-75
2023/05/22 06:29:11;;;;;;;8.83;2.47;;;19.10;44.30;;;;;;5085633;28;20183;-72
2023/05/22 06:31:39;;;;;;;9.10;2.30;;;18.80;45.90;;;;;;5092821;28;20260;-70
2023/05/22 06:34:06;;;;;;;9.80;2.47;;;18.70;46.80;;;;;;5092719;28;20186;-70
2023/05/22 06:36:33;;;;;;;10.93;2.67;;;18.50;47.90;;;;;;5090063;28;20194;-73
2023/05/22 06:39:02;;;;;;;18.27;2.63;;;18.50;48.50;;;;;;5087939;28;20178;-68
2023/05/22 06:41:30;;;;;;;8.07;2.27;;;18.30;49.10;;;;;;5090016;28;20231;-73
2023/05/22 06:43:58;;;;;;;7.63;2.73;;;18.20;50.10;;;;;;5093146;28;20187;-74
2023/05/22 06:46:25;;;;;;;15.37;3.40;;;18.10;51.00;;;;;;5091521;28;20186;-76
2023/05/22 06:48:53;;;;;;;7.50;2.83;;;18.00;51.80;;;;;;5093221;28;20599;-76
2023/05/22 06:51:23;;;;;;;10.93;2.80;;;17.80;52.70;;;;;;5091641;28;20228;-76
2023/05/22 06:53:50;;;;;;;9.63;2.93;;;17.70;53.30;;;;;;5090559;28;20191;-75
2023/05/22 06:56:18;;;;;;;8.13;2.47;;;17.60;53.70;;;;;;5086717;28;20266;-76
2023/05/22 06:58:45;;;;;;;15.63;2.90;;;17.50;54.50;;;;;;5088859;28;20724;-76
2023/05/22 07:01:13;;;;;;;8.03;2.50;;;17.40;55.30;;;;;;5090873;28;20590;-75
2023/05/22 07:03:40;;;;;;;14.00;3.43;;;17.30;55.70;;;;;;5090542;28;20227;-71
2023/05/22 07:06:07;;;;;;;12.80;3.53;;;17.20;55.00;;;;;;5088619;28;20265;-75
2023/05/22 07:08:35;;;;;;;13.40;3.23;;;17.00;54.90;;;;;;5088820;28;20214;-73
2023/05/22 07:11:05;;;;;;;8.90;2.67;;;17.00;55.10;;;;;;5088728;28;20270;-77
2023/05/22 07:13:33;;;;;;;11.17;3.17;;;16.90;55.50;;;;;;5086698;28;20170;-76
2023/05/22 07:16:00;;;;;;;10.20;3.33;;;16.80;55.70;;;;;;5085294;28;20178;-77
2023/05/22 07:18:27;;;;;;;15.87;3.47;;;16.70;56.50;;;;;;5090625;28;20265;-75
2023/05/22 07:20:54;;;;;;;11.07;3.37;;;16.60;56.10;;;;;;5092225;28;20741;-71
2023/05/22 07:23:22;;;;;;;14.60;3.57;;;16.40;56.70;;;;;;5091630;28;20189;-75
2023/05/22 07:25:49;;;;;;;14.73;3.87;;;16.30;56.80;;;;;;5091164;28;20188;-75
2023/05/22 07:28:17;;;;;;;14.47;4.10;;;16.20;57.50;;;;;;5087719;28;20179;-76
2023/05/22 07:30:44;;;;;;;16.43;3.80;;;16.20;58.10;;;;;;5085765;28;20252;-73
2023/05/22 07:33:12;;;;;;;11.83;3.53;;;16.00;58.60;;;;;;5087507;28;20588;-75
2023/05/22 07:35:40;;;;;;;13.07;4.13;;;16.00;58.80;;;;;;5091901;28;20299;-74
2023/05/22 07:38:07;;;;;;;9.57;3.30;;;15.80;59.10;;;;;;5090762;28;20181;-76
2023/05/22 07:40:34;;;;;;;9.23;3.27;;;15.70;59.60;;;;;;5092123;28;20199;-75
2023/05/22 07:43:02;;;;;;;13.37;4.30;;;15.70;60.40;;;;;;5091357;28;20225;-77
2023/05/22 07:45:29;;;;;;;21.00;4.00;;;15.60;60.70;;;;;;5083517;28;20186;-71
2023/05/22 07:47:57;;;;;;;12.13;3.90;;;15.60;60.80;;;;;;5089856;28;20280;-77
2023/05/22 07:50:25;;;;;;;11.40;3.60;;;15.50;60.90;;;;;;5090068;28;20252;-77
2023/05/22 07:52:53;;;;;;;10.07;3.93;;;15.50;61.30;;;;;;5087638;28;20174;-77
2023/05/22 07:55:20;;;;;;;9.50;3.73;;;15.50;61.40;;;;;;5090708;28;20197;-76
2023/05/22 07:57:47;;;;;;;14.17;4.50;;;15.50;61.80;;;;;;5087322;28;20182;-77
2023/05/22 08:00:15;;;;;;;15.63;4.77;;;15.50;62.10;;;;;;5086725;28;20214;-75
2023/05/22 08:02:43;;;;;;;11.60;4.07;;;15.40;62.00;;;;;;5086435;28;20175;-77
2023/05/22 08:05:11;;;;;;;10.37;3.80;;;15.30;62.30;;;;;;5090889;28;20273;-75
2023/05/22 08:07:38;;;;;;;14.07;3.67;;;15.30;62.20;;;;;;5088761;28;20183;-73
2023/05/22 08:10:15;;;;;;;11.13;4.13;;;15.30;62.30;;;;;;5091224;28;20316;-73
2023/05/22 08:12:42;;;;;;;8.03;2.93;;;15.30;62.30;;;;;;5087223;28;20729;-74
2023/05/22 08:15:10;;;;;;;11.60;3.23;;;15.20;62.60;;;;;;5091713;28;20178;-74
2023/05/22 08:17:37;;;;;;;10.87;3.10;;;15.10;62.60;;;;;;5084626;28;20187;-76
2023/05/22 08:20:05;;;;;;;8.83;3.33;;;15.10;63.30;;;;;;5091510;28;20293;-74
2023/05/22 08:22:33;;;;;;;10.37;3.30;;;15.00;63.30;;;;;;5084636;28;20732;-75
2023/05/22 08:25:00;;;;;;;10.63;2.97;;;15.00;64.20;;;;;;5090115;28;20186;-74
2023/05/22 08:27:28;;;;;;;10.13;2.90;;;15.00;64.00;;;;;;5088748;28;20179;-76
2023/05/22 08:29:55;;;;;;;13.33;3.33;;;14.90;63.90;;;;;;5087550;28;20301;-75
2023/05/22 08:32:23;;;;;;;11.40;4.03;;;14.80;64.20;;;;;;5089918;28;20218;-75
2023/05/22 08:34:50;;;;;;;11.13;3.60;;;14.80;64.80;;;;;;5085904;28;20633;-76
2023/05/22 08:37:17;;;;;;;11.67;3.90;;;14.80;64.90;;;;;;5090231;28;20190;-72
2023/05/22 08:39:45;;;;;;;11.80;3.43;;;14.80;64.90;;;;;;5083036;28;20183;-71
2023/05/22 08:42:12;;;;;;;8.17;3.53;;;14.70;64.90;;;;;;5083701;28;20179;-73
2023/05/22 08:44:40;;;;;;;11.77;3.93;;;14.60;65.00;;;;;;5086152;28;20251;-76
2023/05/22 08:47:12;;;;;;;13.23;3.47;;;14.50;65.30;;;;;;5089697;28;20177;-76
2023/05/22 08:49:40;;;;;;;8.90;3.63;;;14.50;65.40;;;;;;5087713;28;20194;-70
2023/05/22 08:52:21;;;;;;;15.00;4.30;;;14.50;65.90;;;;;;5089750;28;20556;-73
2023/05/22 08:54:54;;;;;;;15.03;4.67;;;14.50;65.90;;;;;;5089352;28;20262;-76
2023/05/22 08:57:22;;;;;;;11.43;4.40;;;14.40;66.30;;;;;;5089565;28;20184;-77
2023/05/22 08:59:51;;;;;;;17.03;5.70;;;14.30;66.60;;;;;;5083105;28;20544;-76
2023/05/22 09:02:18;;;;;;;19.07;7.20;;;14.30;66.80;;;;;;5086639;28;20174;-73
2023/05/22 09:04:46;;;;;;;16.87;5.43;;;14.20;67.00;;;;;;5087772;28;20200;-77
2023/05/22 09:07:13;;;;;;;13.77;6.70;;;14.20;67.10;;;;;;5087302;28;20266;-75
2023/05/22 09:09:41;;;;;;;17.40;6.97;;;14.20;67.30;;;;;;5090288;28;20257;-76
2023/05/22 09:12:10;;;;;;;12.73;5.63;;;14.00;67.40;;;;;;5091828;28;20217;-71
2023/05/22 09:14:41;;;;;;;16.77;4.77;;;14.00;67.80;;;;;;5090880;28;20183;-70
2023/05/22 09:17:13;;;;;;;15.87;5.97;;;14.00;68.40;;;;;;5094212;28;20289;-75
2023/05/22 09:19:47;;;;;;;17.03;6.27;;;13.90;68.90;;;;;;5088612;28;20192;-74
2023/05/22 09:22:15;;;;;;;20.77;5.77;;;13.90;69.10;;;;;;5091186;28;20181;-74
2023/05/22 09:24:45;;;;;;;15.60;6.57;;;13.90;69.60;;;;;;5091198;28;20702;-77
2023/05/22 09:27:13;;;;;;;18.50;6.97;;;13.90;69.70;;;;;;5092335;28;20191;-70
2023/05/22 09:29:55;;;;;;;14.60;6.47;;;13.80;69.80;;;;;;5093486;28;20202;-75
2023/05/22 09:32:23;;;;;;;14.70;6.10;;;13.80;70.30;;;;;;5090678;28;20706;-76
2023/05/22 09:34:51;;;;;;;20.40;6.27;;;13.80;70.20;;;;;;5094200;28;20194;-77
2023/05/22 09:37:18;;;;;;;19.37;6.00;;;13.70;70.40;;;;;;5090410;28;20708;-74
2023/05/22 09:39:50;;;;;;;11.20;5.90;;;13.70;70.20;;;;;;5092177;28;20183;-75
2023/05/22 09:42:17;;;;;;;13.13;7.13;;;13.70;69.80;;;;;;5087127;28;20534;-76
2023/05/22 09:44:51;;;;;;;18.80;7.03;;;13.60;69.90;;;;;;5085559;28;20710;-75
2023/05/22 09:47:19;;;;;;;15.70;8.67;;;13.60;69.90;;;;;;5084277;28;20641;-77
2023/05/22 09:49:48;;;;;;;18.73;8.70;;;13.60;69.90;;;;;;5092161;28;20198;-75
2023/05/22 09:52:17;;;;;;;23.03;11.70;;;13.60;70.60;;;;;;5086278;28;20317;-72
2023/05/22 09:54:55;;;;;;;27.00;12.30;;;13.50;71.00;;;;;;5092237;28;20182;-73
2023/05/22 09:57:27;;;;;;;22.03;11.17;;;13.50;71.20;;;;;;5087760;28;20182;-77
2023/05/22 09:59:59;;;;;;;24.03;12.50;;;13.40;71.70;;;;;;5091977;28;20301;-76
2023/05/22 10:02:27;;;;;;;22.23;11.70;;;13.30;72.30;;;;;;5088150;28;20663;-77
2023/05/22 10:04:55;;;;;;;23.23;12.23;;;13.30;72.40;;;;;;5086916;28;20671;-74
2023/05/22 10:07:29;;;;;;;22.43;10.77;;;13.20;72.50;;;;;;5088764;28;20184;-77
2023/05/22 10:10:11;;;;;;;21.83;11.13;;;13.20;72.80;;;;;;5084797;28;20239;-68
2023/05/22 10:13:00;;;;;;;24.47;12.40;;;13.10;73.30;;;;;;5074119;28;20751;-66
2023/05/22 10:15:28;;;;;;;26.67;14.20;;;13.10;73.60;;;;;;5075908;28;20265;-76
2023/05/22 10:17:56;;;;;;;18.47;10.90;;;13.00;73.60;;;;;;5085003;28;20182;-72
2023/05/22 10:20:28;;;;;;;19.80;9.83;;;13.00;73.60;;;;;;5089278;28;20513;-74
2023/05/22 10:22:56;;;;;;;21.80;8.00;;;13.00;73.70;;;;;;5090462;28;20193;-73
2023/05/22 10:25:24;;;;;;;17.70;8.47;;;12.90;73.30;;;;;;5090060;28;20175;-75
2023/05/22 10:27:54;;;;;;;16.30;8.40;;;12.90;73.80;;;;;;5089449;28;20179;-74
2023/05/22 10:30:59;;;;;;;15.37;6.17;;;12.90;74.00;;;;;;5088191;28;20266;-73
2023/05/22 10:33:44;;;;;;;24.77;7.23;;;12.80;74.40;;;;;;5058266;28;20269;-76
2023/05/22 10:36:36;;;;;;;14.30;7.10;;;12.80;74.70;;;;;;5091050;28;20670;-73
2023/05/22 10:39:07;;;;;;;17.63;6.97;;;12.80;74.90;;;;;;5087494;28;20571;-73
2023/05/22 10:41:35;;;;;;;15.63;6.60;;;12.80;74.80;;;;;;5089239;28;20547;-76
2023/05/22 10:44:02;;;;;;;17.43;7.13;;;12.70;74.90;;;;;;5088778;28;20177;-72
2023/05/22 10:46:35;;;;;;;22.07;8.00;;;12.70;75.10;;;;;;5087326;28;20170;-78
2023/05/22 10:49:03;;;;;;;19.87;7.67;;;12.70;75.30;;;;;;5086271;28;20208;-71
2023/05/22 10:51:33;;;;;;;22.17;7.63;;;12.70;75.40;;;;;;5090657;28;20217;-77
2023/05/22 10:54:01;;;;;;;26.50;10.20;;;12.80;75.60;;;;;;5089688;28;20182;-76
2023/05/22 10:56:35;;;;;;;23.03;11.20;;;12.80;75.70;;;;;;5089768;28;20193;-73
2023/05/22 10:59:06;;;;;;;18.93;9.17;;;12.80;75.60;;;;;;5089168;28;20537;-77
2023/05/22 11:01:36;;;;;;;19.73;8.17;;;12.80;75.60;;;;;;5087452;28;20279;-76
2023/05/22 11:04:06;;;;;;;18.07;9.80;;;12.80;75.80;;;;;;5090124;28;20181;-77
2023/05/22 11:06:33;;;;;;;27.03;13.63;;;12.80;75.70;;;;;;5090923;28;20186;-76
2023/05/22 11:09:17;;;;;;;32.20;13.17;;;12.80;75.90;;;;;;5089437;28;20191;-71
2023/05/22 11:11:45;;;;;;;20.17;10.57;;;12.80;75.70;;;;;;5091172;28;20214;-76
2023/05/22 11:14:19;;;;;;;20.87;9.00;;;12.80;75.70;;;;;;5088471;28;20178;-75
2023/05/22 11:16:47;;;;;;;21.77;9.00;;;12.70;75.80;;;;;;5091020;28;20187;-73
2023/05/22 11:19:15;;;;;;;23.37;9.33;;;12.70;75.80;;;;;;5088688;28;20179;-72
2023/05/22 11:21:46;;;;;;;22.90;8.77;;;12.60;76.20;;;;;;5089972;28;20261;-70
2023/05/22 11:24:19;;;;;;;20.80;8.97;;;12.50;76.10;;;;;;5088912;28;20671;-69
2023/05/22 11:27:07;;;;;;;19.47;10.27;;;12.50;76.50;;;;;;5090707;28;20171;-72
2023/05/22 11:29:35;;;;;;;23.53;10.70;;;12.40;76.70;;;;;;5087516;28;20174;-73
2023/05/22 11:32:03;;;;;;;24.33;10.47;;;12.40;76.80;;;;;;5087455;28;20238;-72
2023/05/22 11:34:30;;;;;;;26.77;9.60;;;12.30;77.00;;;;;;5086263;28;20174;-69
2023/05/22 11:36:58;;;;;;;18.03;9.10;;;12.30;77.20;;;;;;5090829;28;20257;-76
2023/05/22 11:39:26;;;;;;;23.90;8.90;;;12.30;77.20;;;;;;5089893;28;20186;-70
2023/05/22 11:41:54;;;;;;;21.80;10.23;;;12.30;77.40;;;;;;5091867;28;20186;-75
2023/05/22 11:44:21;;;;;;;21.73;9.93;;;12.30;77.50;;;;;;5088208;28;20185;-76
2023/05/22 11:46:49;;;;;;;27.03;9.93;;;12.20;77.60;;;;;;5090443;28;20178;-72
2023/05/22 11:49:16;;;;;;;30.20;9.77;;;12.20;77.80;;;;;;5090626;28;20175;-75
2023/05/22 11:51:44;;;;;;;20.57;10.00;;;12.20;77.90;;;;;;5088717;28;20634;-73
2023/05/22 11:54:11;;;;;;;23.20;8.80;;;12.20;78.20;;;;;;5091165;28;20170;-75
2023/05/22 11:56:38;;;;;;;19.27;8.23;;;12.10;78.30;;;;;;5089678;28;20206;-71
2023/05/22 11:59:06;;;;;;;28.73;8.87;;;12.10;78.70;;;;;;5088827;28;20185;-71
2023/05/22 12:01:35;;;;;;;23.13;8.87;;;12.10;79.10;;;;;;5091090;28;21037;-74
2023/05/22 12:04:04;;;;;;;19.63;9.17;;;12.20;79.20;;;;;;5087762;28;20182;-72
2023/05/22 12:06:32;;;;;;;19.30;8.73;;;12.10;79.00;;;;;;5085595;28;20557;-77
2023/05/22 12:09:00;;;;;;;26.20;9.27;;;12.10;79.20;;;;;;5091140;28;20186;-74
2023/05/22 12:11:28;;;;;;;19.77;8.47;;;12.10;79.50;;;;;;5091729;28;20635;-73
2023/05/22 12:14:04;;;;;;;16.17;7.73;;;12.10;79.30;;;;;;5084375;28;20309;-75
2023/05/22 12:16:38;;;;;;;18.97;7.30;;;12.10;79.30;;;;;;5089744;28;20186;-74
2023/05/22 12:19:10;;;;;;;19.53;8.07;;;12.00;79.60;;;;;;5086293;28;20201;-74
2023/05/22 12:21:43;;;;;;;21.10;7.97;;;12.00;79.60;;;;;;5084199;28;20196;-73
2023/05/22 12:24:10;;;;;;;17.43;8.20;;;11.90;79.60;;;;;;5089695;28;20254;-74
2023/05/22 12:26:37;;;;;;;19.40;8.27;;;11.90;80.10;;;;;;5090815;28;20182;-73
2023/05/22 12:29:05;;;;;;;15.60;7.37;;;11.80;80.10;;;;;;5090625;28;20178;-70
2023/05/22 12:31:37;;;;;;;22.73;7.50;;;11.80;80.40;;;;;;5088680;28;20221;-73
2023/05/22 12:34:07;;;;;;;20.80;7.83;;;11.80;80.80;;;;;;5087265;28;20190;-72
2023/05/22 12:36:39;;;;;;;18.40;7.77;;;11.80;80.40;;;;;;5090310;28;20194;-72
2023/05/22 12:39:11;;;;;;;20.40;7.90;;;11.80;80.50;;;;;;5090799;28;20241;-72
2023/05/22 12:41:39;;;;;;;20.90;7.43;;;11.70;80.70;;;;;;5089075;28;20186;-72
2023/05/22 12:44:06;;;;;;;20.57;7.30;;;11.70;80.60;;;;;;5091659;28;20218;-75
2023/05/22 12:46:34;;;;;;;16.27;7.63;;;11.60;80.70;;;;;;5091273;28;20283;-77
2023/05/22 12:49:02;;;;;;;24.80;7.60;;;11.60;81.10;;;;;;5090052;28;20193;-75
2023/05/22 12:51:31;;;;;;;18.20;7.40;;;11.60;81.60;;;;;;5090717;28;20210;-72